createdAt,value
2022-08-26T04:03:09.958Z,0.00
2022-08-26T04:04:09.880Z,0.00
2022-08-26T04:05:09.877Z,0.00
2022-08-26T04:06:09.871Z,0.00
2022-08-26T04:07:09.831Z,4.00
2022-08-26T04:08:10.070Z,4.00
2022-08-26T04:09:09.811Z,4.00
2022-08-26T04:10:09.843Z,0.00
2022-08-26T04:11:09.775Z,4.00
2022-08-26T04:12:09.778Z,4.00
2022-08-26T04:13:10.042Z,4.00
2022-08-26T04:14:09.753Z,4.00
2022-08-26T04:15:09.747Z,4.00
2022-08-26T04:16:10.278Z,8.00
2022-08-26T04:17:09.717Z,8.00
2022-08-26T04:18:09.715Z,8.00
2022-08-26T04:19:09.722Z,12.00
2022-08-26T04:20:09.680Z,12.00
2022-08-26T04:21:09.669Z,16.00
2022-08-26T04:22:09.644Z,16.00
2022-08-26T04:23:09.668Z,20.00
2022-08-26T04:24:12.091Z,20.00
2022-08-26T04:25:09.631Z,20.00
2022-08-26T04:26:09.611Z,24.00
2022-08-26T04:27:09.601Z,28.00
2022-08-26T04:28:09.575Z,28.00
2022-08-26T04:29:09.627Z,32.00
2022-08-26T04:30:09.563Z,36.00
2022-08-26T04:31:09.630Z,40.00
2022-08-26T04:32:09.553Z,44.00
2022-08-26T04:33:12.902Z,52.00
2022-08-26T04:34:09.525Z,56.00
2022-08-26T04:35:09.500Z,68.00
2022-08-26T04:36:09.501Z,84.00
2022-08-26T04:37:09.481Z,92.00
2022-08-26T04:38:09.490Z,100.00
2022-08-26T04:39:09.500Z,112.00
2022-08-26T04:40:09.519Z,124.00
2022-08-26T04:41:15.263Z,132.00
2022-08-26T04:42:09.456Z,156.00
2022-08-26T04:43:09.488Z,168.00
2022-08-26T04:44:09.441Z,168.00
2022-08-26T04:45:10.406Z,172.00
2022-08-26T04:46:09.430Z,192.00
2022-08-26T04:47:09.371Z,196.00
2022-08-26T04:48:11.067Z,196.00
2022-08-26T04:49:16.503Z,204.00
2022-08-26T04:50:09.379Z,220.00
2022-08-26T04:51:09.380Z,216.00
2022-08-26T04:52:09.355Z,220.00
2022-08-26T04:53:09.442Z,232.00
2022-08-26T04:54:09.317Z,240.00
2022-08-26T04:55:09.327Z,264.00
2022-08-26T04:56:09.280Z,300.00
2022-08-26T04:57:09.279Z,312.00
2022-08-26T04:58:10.462Z,316.00
2022-08-26T04:59:14.954Z,336.00
2022-08-26T05:00:09.235Z,376.00
2022-08-26T05:01:09.236Z,408.00
2022-08-26T05:02:09.289Z,416.00
2022-08-26T05:03:10.578Z,428.00
2022-08-26T05:04:09.287Z,448.00
2022-08-26T05:05:09.199Z,476.00
2022-08-26T05:06:09.448Z,544.00
2022-08-26T05:07:09.153Z,640.00
2022-08-26T05:08:09.180Z,696.00
2022-08-26T05:09:09.150Z,680.00
2022-08-26T05:10:09.133Z,648.00
2022-08-26T05:11:09.438Z,668.00
2022-08-26T05:12:09.172Z,692.00
2022-08-26T05:13:11.111Z,688.00
2022-08-26T05:14:09.090Z,668.00
2022-08-26T05:15:09.078Z,648.00
2022-08-26T05:16:09.094Z,644.00
2022-08-26T05:17:09.046Z,668.00
2022-08-26T05:18:09.053Z,700.00
2022-08-26T05:19:09.038Z,720.00
2022-08-26T05:20:09.028Z,748.00
2022-08-26T05:21:09.020Z,800.00
2022-08-26T05:22:09.023Z,840.00
2022-08-26T05:23:09.275Z,868.00
2022-08-26T05:24:08.971Z,844.00
2022-08-26T05:25:08.993Z,792.00
2022-08-26T05:26:08.953Z,776.00
2022-08-26T05:27:11.445Z,768.00
2022-08-26T05:28:08.938Z,740.00
2022-08-26T05:29:08.930Z,732.00
2022-08-26T05:30:08.919Z,792.00
2022-08-26T05:31:08.935Z,852.00
2022-08-26T05:32:08.883Z,880.00
2022-08-26T05:33:09.198Z,892.00
2022-08-26T05:34:08.868Z,924.00
2022-08-26T05:35:09.153Z,964.00
2022-08-26T05:36:08.855Z,988.00
2022-08-26T05:37:08.856Z,1032.00
2022-08-26T05:38:12.392Z,1060.00
2022-08-26T05:39:10.631Z,1052.00
2022-08-26T05:40:08.873Z,1024.00
2022-08-26T05:41:08.802Z,1008.00
2022-08-26T05:42:08.790Z,1012.00
2022-08-26T05:43:09.175Z,1044.00
2022-08-26T05:44:08.806Z,1084.00
2022-08-26T05:45:08.746Z,1096.00
2022-08-26T05:46:08.896Z,1124.00
2022-08-26T05:47:08.788Z,1184.00
2022-08-26T05:48:08.742Z,1208.00
2022-08-26T05:49:12.814Z,1204.00
2022-08-26T05:50:08.701Z,1224.00
2022-08-26T05:51:08.698Z,1272.00
2022-08-26T05:52:08.877Z,1308.00
2022-08-26T05:53:08.935Z,1320.00
2022-08-26T05:54:08.673Z,1320.00
2022-08-26T05:55:08.648Z,1348.00
2022-08-26T05:56:08.642Z,1376.00
2022-08-26T05:57:08.631Z,1332.00
2022-08-26T05:58:08.621Z,1276.00
2022-08-26T05:59:14.289Z,1236.00
2022-08-26T06:00:08.620Z,1224.00
2022-08-26T06:01:09.394Z,1264.00
2022-08-26T06:02:08.580Z,1368.00
2022-08-26T06:03:08.797Z,1532.00
2022-08-26T06:04:08.551Z,1684.00
2022-08-26T06:05:08.548Z,1836.00
2022-08-26T06:06:08.562Z,2000.00
2022-08-26T06:07:09.939Z,2156.00
2022-08-26T06:08:08.506Z,2236.00
2022-08-26T06:09:09.348Z,2228.00
2022-08-26T06:10:31.025Z,2252.00
2022-08-26T06:11:08.492Z,2320.00
2022-08-26T06:12:08.491Z,2400.00
2022-08-26T06:13:09.384Z,2404.00
2022-08-26T06:14:08.433Z,2280.00
2022-08-26T06:15:08.452Z,2204.00
2022-08-26T06:16:08.474Z,2120.00
2022-08-26T06:17:08.401Z,2052.00
2022-08-26T06:18:08.396Z,2068.00
2022-08-26T06:19:10.524Z,2096.00
2022-08-26T06:20:08.442Z,2048.00
2022-08-26T06:21:08.384Z,2064.00
2022-08-26T06:22:08.333Z,2220.00
2022-08-26T06:23:08.476Z,2452.00
2022-08-26T06:24:08.331Z,2636.00
2022-08-26T06:25:08.314Z,2672.00
2022-08-26T06:26:08.314Z,2564.00
2022-08-26T06:27:08.298Z,2440.00
2022-08-26T06:28:08.278Z,2400.00
2022-08-26T06:29:08.262Z,2364.00
2022-08-26T06:30:08.272Z,2344.00
2022-08-26T06:31:08.320Z,2376.00
2022-08-26T06:32:08.755Z,2368.00
2022-08-26T06:33:08.373Z,2392.00
2022-08-26T06:34:10.719Z,2628.00
2022-08-26T06:35:12.244Z,2988.00
2022-08-26T06:36:08.192Z,3308.00
2022-08-26T06:37:08.229Z,3516.00
2022-08-26T06:38:08.190Z,3672.00
2022-08-26T06:39:08.156Z,3724.00
2022-08-26T06:40:08.198Z,3624.00
2022-08-26T06:41:08.157Z,3644.00
2022-08-26T06:42:08.113Z,3768.00
2022-08-26T06:43:08.229Z,3856.00
2022-08-26T06:44:08.123Z,4000.00
2022-08-26T06:45:08.091Z,4080.00
2022-08-26T06:46:08.130Z,4044.00
2022-08-26T06:47:08.072Z,4080.00
2022-08-26T06:48:08.049Z,4048.00
2022-08-26T06:49:08.052Z,3900.00
2022-08-26T06:50:08.050Z,3788.00
2022-08-26T06:51:08.034Z,3764.00
2022-08-26T06:52:08.016Z,3840.00
2022-08-26T06:53:08.345Z,3980.00
2022-08-26T06:54:07.998Z,4056.00
2022-08-26T06:55:07.997Z,4092.00
2022-08-26T06:56:07.986Z,4132.00
2022-08-26T06:57:07.950Z,4104.00
2022-08-26T06:58:07.959Z,4128.00
2022-08-26T06:59:08.904Z,4240.00
2022-08-26T07:00:07.982Z,4184.00
2022-08-26T07:01:11.519Z,3940.00
2022-08-26T07:02:08.120Z,3796.00
2022-08-26T07:03:08.232Z,3808.00
2022-08-26T07:04:10.598Z,3848.00
2022-08-26T07:05:07.866Z,3868.00
2022-08-26T07:06:07.870Z,3824.00
2022-08-26T07:07:07.851Z,3748.00
2022-08-26T07:08:09.125Z,3688.00
2022-08-26T07:09:09.863Z,3796.00
2022-08-26T07:10:07.825Z,3972.00
2022-08-26T07:11:07.815Z,4012.00
2022-08-26T07:12:07.791Z,4004.00
2022-08-26T07:13:08.129Z,4068.00
2022-08-26T07:14:07.817Z,4256.00
2022-08-26T07:15:07.785Z,4604.00
2022-08-26T07:16:07.802Z,4796.00
2022-08-26T07:17:11.052Z,4668.00
2022-08-26T07:18:07.738Z,4488.00
2022-08-26T07:19:11.001Z,4452.00
2022-08-26T07:20:07.706Z,4552.00
2022-08-26T07:21:07.727Z,4680.00
2022-08-26T07:22:08.652Z,4824.00
2022-08-26T07:23:07.843Z,4964.00
2022-08-26T07:24:07.729Z,5160.00
2022-08-26T07:25:07.647Z,5380.00
2022-08-26T07:26:07.652Z,5480.00
2022-08-26T07:27:08.626Z,5520.00
2022-08-26T07:28:07.624Z,5484.00
2022-08-26T07:29:07.630Z,5368.00
2022-08-26T07:30:07.596Z,5344.00
2022-08-26T07:31:09.632Z,5508.00
2022-08-26T07:32:07.615Z,5704.00
2022-08-26T07:33:08.650Z,5640.00
2022-08-26T07:34:07.552Z,5364.00
2022-08-26T07:35:07.568Z,5012.00
2022-08-26T07:36:07.536Z,4768.00
2022-08-26T07:37:08.843Z,4788.00
2022-08-26T07:38:07.511Z,4840.00
2022-08-26T07:39:08.459Z,4832.00
2022-08-26T07:40:07.515Z,4956.00
2022-08-26T07:41:07.478Z,5164.00
2022-08-26T07:42:08.536Z,5316.00
2022-08-26T07:43:07.647Z,5472.00
2022-08-26T07:44:07.441Z,5716.00
2022-08-26T07:45:07.435Z,5864.00
2022-08-26T07:46:07.424Z,5904.00
2022-08-26T07:47:10.043Z,5964.00
2022-08-26T07:48:07.406Z,5964.00
2022-08-26T07:49:07.424Z,5996.00
2022-08-26T07:50:07.397Z,6096.00
2022-08-26T07:51:07.367Z,6036.00
2022-08-26T07:52:07.359Z,5848.00
2022-08-26T07:53:07.486Z,5820.00
2022-08-26T07:54:07.371Z,6012.00
2022-08-26T07:55:07.344Z,6196.00
2022-08-26T07:56:07.310Z,6152.00
2022-08-26T07:57:09.265Z,6108.00
2022-08-26T07:58:07.299Z,6164.00
2022-08-26T07:59:13.576Z,6204.00
2022-08-26T08:00:07.280Z,6280.00
2022-08-26T08:01:07.298Z,6412.00
2022-08-26T08:02:07.232Z,6652.00
2022-08-26T08:03:07.459Z,7032.00
2022-08-26T08:04:07.234Z,7340.00
2022-08-26T08:05:07.528Z,7628.00
2022-08-26T08:06:07.195Z,8048.00
2022-08-26T08:07:07.475Z,8332.00
2022-08-26T08:08:27.890Z,8240.00
2022-08-26T08:09:07.166Z,7648.00
2022-08-26T08:10:09.879Z,6760.00
2022-08-26T08:11:07.142Z,5988.00
2022-08-26T08:12:07.142Z,5396.00
2022-08-26T08:13:07.250Z,4980.00
2022-08-26T08:14:08.392Z,4748.00
2022-08-26T08:15:07.120Z,4644.00
2022-08-26T08:16:07.101Z,4580.00
2022-08-26T08:17:07.245Z,4576.00
2022-08-26T08:18:07.110Z,4648.00
2022-08-26T08:19:07.072Z,4600.00
2022-08-26T08:20:07.040Z,4472.00
2022-08-26T08:21:24.067Z,4484.00
2022-08-26T08:22:17.501Z,4496.00
2022-08-26T08:23:07.061Z,4404.00
2022-08-26T08:24:07.012Z,4304.00
2022-08-26T08:25:08.124Z,4260.00
2022-08-26T08:26:07.002Z,4268.00
2022-08-26T08:27:06.983Z,4356.00
2022-08-26T08:28:07.043Z,4568.00
2022-08-26T08:29:06.962Z,4952.00
2022-08-26T08:30:06.951Z,5544.00
2022-08-26T08:31:07.020Z,6156.00
2022-08-26T08:32:06.980Z,6728.00
2022-08-26T08:33:06.897Z,7176.00
2022-08-26T08:34:06.911Z,7536.00
2022-08-26T08:35:10.797Z,7640.00
2022-08-26T08:36:06.881Z,7632.00
2022-08-26T08:37:10.078Z,7580.00
2022-08-26T08:38:06.994Z,7532.00
2022-08-26T08:39:06.835Z,7332.00
2022-08-26T08:40:06.891Z,7008.00
2022-08-26T08:41:06.883Z,6692.00
2022-08-26T08:42:06.835Z,6536.00
2022-08-26T08:43:06.999Z,6564.00
2022-08-26T08:44:06.796Z,6508.00
2022-08-26T08:45:06.772Z,6336.00
2022-08-26T08:46:06.813Z,6100.00
2022-08-26T08:47:06.766Z,5800.00
2022-08-26T08:48:06.943Z,5596.00
2022-08-26T08:49:06.738Z,5604.00
2022-08-26T08:50:06.722Z,5712.00
2022-08-26T08:51:06.702Z,5792.00
2022-08-26T08:52:06.717Z,5820.00
2022-08-26T08:53:08.964Z,5880.00
2022-08-26T08:54:06.707Z,6068.00
2022-08-26T08:55:11.063Z,6408.00
2022-08-26T08:56:06.655Z,6608.00
2022-08-26T08:57:06.646Z,6740.00
2022-08-26T08:58:08.124Z,7076.00
2022-08-26T08:59:06.637Z,7444.00
2022-08-26T09:00:06.614Z,7788.00
2022-08-26T09:01:06.725Z,8048.00
2022-08-26T09:02:06.673Z,8148.00
2022-08-26T09:03:06.574Z,8112.00
2022-08-26T09:04:06.588Z,7920.00
2022-08-26T09:05:06.554Z,7712.00
2022-08-26T09:06:07.460Z,7524.00
2022-08-26T09:07:06.548Z,7416.00
2022-08-26T09:08:06.745Z,7544.00
2022-08-26T09:09:06.509Z,7824.00
2022-08-26T09:10:06.497Z,8040.00
2022-08-26T09:11:06.840Z,8192.00
2022-08-26T09:12:06.526Z,8532.00
2022-08-26T09:13:06.461Z,9092.00
2022-08-26T09:14:06.492Z,9336.00
2022-08-26T09:15:06.445Z,9208.00
2022-08-26T09:16:06.417Z,9208.00
2022-08-26T09:17:06.499Z,9356.00
2022-08-26T09:18:06.420Z,9696.00
2022-08-26T09:19:06.406Z,10088.00
2022-08-26T09:20:06.386Z,10172.00
2022-08-26T09:21:06.421Z,9736.00
2022-08-26T09:22:09.372Z,9020.00
2022-08-26T09:23:06.392Z,8496.00
2022-08-26T09:24:06.388Z,8400.00
2022-08-26T09:25:06.350Z,8628.00
2022-08-26T09:26:06.309Z,8892.00
2022-08-26T09:27:06.951Z,8996.00
2022-08-26T09:28:06.360Z,8896.00
2022-08-26T09:29:06.349Z,8968.00
2022-08-26T09:30:06.311Z,9084.00
2022-08-26T09:31:10.653Z,9108.00
2022-08-26T09:32:06.252Z,9144.00
2022-08-26T09:33:06.645Z,9040.00
2022-08-26T09:34:06.254Z,9140.00
2022-08-26T09:35:06.345Z,9496.00
2022-08-26T09:36:06.224Z,9788.00
2022-08-26T09:37:06.205Z,9948.00
2022-08-26T09:38:09.083Z,9852.00
2022-08-26T09:39:06.176Z,9772.00
2022-08-26T09:40:06.214Z,10084.00
2022-08-26T09:41:06.161Z,10176.00
2022-08-26T09:42:06.154Z,9868.00
2022-08-26T09:43:06.186Z,9580.00
2022-08-26T09:44:06.145Z,9420.00
2022-08-26T09:45:06.164Z,9408.00
2022-08-26T09:46:06.147Z,9516.00
2022-08-26T09:47:06.095Z,9884.00
2022-08-26T09:48:06.146Z,10224.00
2022-08-26T09:49:06.079Z,10284.00
2022-08-26T09:50:09.405Z,10100.00
2022-08-26T09:51:06.064Z,9788.00
2022-08-26T09:52:06.039Z,9560.00
2022-08-26T09:53:09.933Z,9420.00
2022-08-26T09:54:08.027Z,9348.00
2022-08-26T09:55:06.016Z,9464.00
2022-08-26T09:56:06.000Z,9644.00
2022-08-26T09:57:05.980Z,9808.00
2022-08-26T09:58:08.770Z,9964.00
2022-08-26T09:59:06.485Z,10084.00
2022-08-26T10:00:05.961Z,10488.00
2022-08-26T10:01:06.064Z,11092.00
2022-08-26T10:02:05.938Z,11408.00
2022-08-26T10:03:05.913Z,11340.00
2022-08-26T10:04:05.928Z,11272.00
2022-08-26T10:05:09.226Z,11240.00
2022-08-26T10:06:05.901Z,11020.00
2022-08-26T10:07:05.888Z,10564.00
2022-08-26T10:08:05.885Z,9908.00
2022-08-26T10:09:09.659Z,9356.00
2022-08-26T10:10:05.849Z,9012.00
2022-08-26T10:11:05.824Z,8876.00
2022-08-26T10:12:05.859Z,8872.00
2022-08-26T10:13:05.868Z,8956.00
2022-08-26T10:14:05.848Z,8932.00
2022-08-26T10:15:05.792Z,8812.00
2022-08-26T10:16:05.771Z,8696.00
2022-08-26T10:17:07.004Z,8768.00
2022-08-26T10:18:05.879Z,8968.00
2022-08-26T10:19:05.780Z,9068.00
2022-08-26T10:20:05.756Z,9056.00
2022-08-26T10:21:05.746Z,9044.00
2022-08-26T10:22:05.698Z,8896.00
2022-08-26T10:23:06.588Z,8672.00
2022-08-26T10:24:05.698Z,8456.00
2022-08-26T10:25:05.728Z,8564.00
2022-08-26T10:26:05.667Z,9004.00
2022-08-26T10:27:05.675Z,9684.00
2022-08-26T10:28:05.845Z,10120.00
2022-08-26T10:29:05.646Z,9996.00
2022-08-26T10:30:05.642Z,9632.00
2022-08-26T10:31:05.609Z,9124.00
2022-08-26T10:32:05.646Z,8740.00
2022-08-26T10:33:05.663Z,8648.00
2022-08-26T10:34:05.581Z,8884.00
2022-08-26T10:35:05.781Z,9476.00
2022-08-26T10:36:05.554Z,10008.00
2022-08-26T10:37:15.726Z,10312.00
2022-08-26T10:38:05.585Z,10492.00
2022-08-26T10:39:05.514Z,10556.00
2022-08-26T10:40:05.572Z,10504.00
2022-08-26T10:41:10.410Z,10008.00
2022-08-26T10:42:05.506Z,9392.00
2022-08-26T10:43:11.146Z,8948.00
2022-08-26T10:44:05.477Z,8740.00
2022-08-26T10:45:06.429Z,9000.00
2022-08-26T10:46:05.477Z,9324.00
2022-08-26T10:47:05.451Z,9560.00
2022-08-26T10:48:05.468Z,9968.00
2022-08-26T10:49:06.512Z,10384.00
2022-08-26T10:50:05.995Z,10560.00
2022-08-26T10:51:06.035Z,10492.00
2022-08-26T10:52:12.368Z,10224.00
2022-08-26T10:53:09.559Z,9624.00
2022-08-26T10:54:05.361Z,9164.00
2022-08-26T10:55:05.347Z,9020.00
2022-08-26T10:56:06.533Z,9228.00
2022-08-26T10:57:05.353Z,9820.00
2022-08-26T10:58:07.280Z,10576.00
2022-08-26T10:59:05.322Z,11320.00
2022-08-26T11:00:05.304Z,12068.00
2022-08-26T11:01:10.467Z,12680.00
2022-08-26T11:02:05.258Z,13184.00
2022-08-26T11:03:05.325Z,13388.00
2022-08-26T11:04:05.313Z,13280.00
2022-08-26T11:05:05.227Z,13084.00
2022-08-26T11:06:05.255Z,12780.00
2022-08-26T11:07:05.267Z,12164.00
2022-08-26T11:08:05.293Z,11604.00
2022-08-26T11:09:05.214Z,11556.00
2022-08-26T11:10:05.194Z,12500.00
2022-08-26T11:11:05.194Z,13648.00
2022-08-26T11:12:10.108Z,14460.00
2022-08-26T11:13:05.157Z,14808.00
2022-08-26T11:14:05.144Z,15060.00
2022-08-26T11:15:05.355Z,15436.00
2022-08-26T11:16:05.393Z,15444.00
2022-08-26T11:17:05.143Z,15020.00
2022-08-26T11:18:05.108Z,14336.00
2022-08-26T11:19:05.094Z,13820.00
2022-08-26T11:20:09.245Z,13020.00
2022-08-26T11:21:05.081Z,11720.00
2022-08-26T11:22:05.083Z,10064.00
2022-08-26T11:23:05.040Z,9136.00
2022-08-26T11:24:05.031Z,8104.00
2022-08-26T11:25:05.019Z,7180.00
2022-08-26T11:26:05.046Z,6572.00
2022-08-26T11:27:05.018Z,6336.00
2022-08-26T11:28:05.019Z,6304.00
2022-08-26T11:29:04.997Z,6276.00
2022-08-26T11:30:04.980Z,6316.00
2022-08-26T11:31:04.973Z,6468.00
2022-08-26T11:32:04.979Z,6944.00
2022-08-26T11:33:04.935Z,7736.00
2022-08-26T11:34:04.930Z,8332.00
2022-08-26T11:35:04.949Z,8236.00
2022-08-26T11:36:07.496Z,7712.00
2022-08-26T11:37:04.912Z,7640.00
2022-08-26T11:38:04.905Z,8112.00
2022-08-26T11:39:04.878Z,8776.00
2022-08-26T11:40:04.967Z,9264.00
2022-08-26T11:41:04.873Z,9848.00
2022-08-26T11:42:04.859Z,10540.00
2022-08-26T11:43:04.890Z,11368.00
2022-08-26T11:44:04.803Z,12272.00
2022-08-26T11:45:04.885Z,13456.00
2022-08-26T11:46:04.852Z,14928.00
2022-08-26T11:47:04.817Z,16492.00
2022-08-26T11:48:04.791Z,18304.00
2022-08-26T11:49:04.764Z,20064.00
2022-08-26T11:50:04.739Z,21952.00
2022-08-26T11:51:04.776Z,23520.00
2022-08-26T11:52:04.959Z,23392.00
2022-08-26T11:53:06.322Z,21248.00
2022-08-26T11:54:04.705Z,19072.00
2022-08-26T11:55:04.717Z,17248.00
2022-08-26T11:56:04.903Z,15504.00
2022-08-26T11:57:07.927Z,14448.00
2022-08-26T11:58:05.868Z,13636.00
2022-08-26T11:59:04.683Z,13172.00
2022-08-26T12:00:05.734Z,12508.00
2022-08-26T12:01:04.662Z,11516.00
2022-08-26T12:03:15.392Z,9452.00
2022-08-26T12:04:16.486Z,8808.00
2022-08-26T12:05:16.295Z,8336.00
2022-08-26T12:06:16.297Z,7956.00
2022-08-26T12:07:23.998Z,7768.00
2022-08-26T12:08:16.268Z,7768.00
2022-08-26T12:09:16.215Z,8048.00
2022-08-26T12:10:16.223Z,8552.00
2022-08-26T12:11:16.208Z,9136.00
2022-08-26T12:12:16.198Z,9928.00
2022-08-26T12:13:16.183Z,11096.00
2022-08-26T12:14:16.176Z,12432.00
2022-08-26T12:15:16.184Z,12976.00
2022-08-26T12:16:16.211Z,12988.00
2022-08-26T12:17:16.186Z,12992.00
2022-08-26T12:18:16.131Z,13684.00
2022-08-26T12:19:16.118Z,15088.00
2022-08-26T12:20:16.150Z,17440.00
2022-08-26T12:21:16.145Z,19488.00
2022-08-26T12:22:16.135Z,21632.00
2022-08-26T12:23:16.071Z,21056.00
2022-08-26T12:24:16.078Z,19936.00
2022-08-26T12:25:16.053Z,19296.00
2022-08-26T12:26:16.033Z,18848.00
2022-08-26T12:27:16.032Z,18560.00
2022-08-26T12:28:16.024Z,18912.00
2022-08-26T12:29:20.332Z,19488.00
2022-08-26T12:30:19.161Z,20256.00
2022-08-26T12:31:16.043Z,20736.00
2022-08-26T12:32:16.011Z,21536.00
2022-08-26T12:33:22.649Z,22080.00
2022-08-26T12:34:17.889Z,21440.00
2022-08-26T12:35:15.986Z,21504.00
2022-08-26T12:36:15.938Z,22240.00
2022-08-26T12:37:15.914Z,23136.00
2022-08-26T12:38:15.913Z,23360.00
2022-08-26T12:39:15.955Z,24128.00
2022-08-26T12:40:16.009Z,26624.00
2022-08-26T12:41:15.907Z,24480.00
2022-08-26T12:42:15.877Z,23648.00
2022-08-26T12:43:15.891Z,21696.00
2022-08-26T12:44:15.847Z,20224.00
2022-08-26T12:45:15.832Z,18720.00
2022-08-26T12:46:15.840Z,18368.00
2022-08-26T12:47:15.821Z,18176.00
2022-08-26T12:48:15.887Z,16792.00
2022-08-26T12:49:15.786Z,14888.00
2022-08-26T12:50:15.820Z,13272.00
2022-08-26T12:51:15.771Z,12164.00
2022-08-26T12:52:15.779Z,11832.00
2022-08-26T12:53:15.741Z,12016.00
2022-08-26T12:54:15.742Z,12508.00
2022-08-26T12:55:15.720Z,13112.00
2022-08-26T12:56:15.720Z,13732.00
2022-08-26T12:57:15.728Z,14188.00
2022-08-26T12:58:15.707Z,14912.00
2022-08-26T12:59:16.446Z,15816.00
2022-08-26T13:00:15.680Z,15948.00
2022-08-26T13:01:15.856Z,15772.00
2022-08-26T13:02:15.836Z,15044.00
2022-08-26T13:03:15.643Z,14564.00
2022-08-26T13:04:15.832Z,14560.00
2022-08-26T13:05:16.303Z,14348.00
2022-08-26T13:06:16.328Z,13672.00
2022-08-26T13:07:15.589Z,13612.00
2022-08-26T13:08:15.631Z,13956.00
2022-08-26T13:09:15.589Z,13388.00
2022-08-26T13:10:15.564Z,12224.00
2022-08-26T13:11:15.555Z,11348.00
2022-08-26T13:12:15.553Z,10816.00
2022-08-26T13:13:15.563Z,10724.00
2022-08-26T13:14:21.275Z,10404.00
2022-08-26T13:15:15.511Z,10052.00
2022-08-26T13:16:15.570Z,10328.00
2022-08-26T13:17:15.516Z,11244.00
2022-08-26T13:18:15.477Z,11572.00
2022-08-26T13:19:15.529Z,10796.00
2022-08-26T13:20:15.455Z,9492.00
2022-08-26T13:21:15.480Z,8944.00
2022-08-26T13:22:15.442Z,8980.00
2022-08-26T13:23:15.629Z,9324.00
2022-08-26T13:24:15.406Z,9516.00
2022-08-26T13:25:15.413Z,9400.00
2022-08-26T13:26:15.385Z,9232.00
2022-08-26T13:27:15.415Z,8788.00
2022-08-26T13:28:15.392Z,8504.00
2022-08-26T13:29:15.391Z,8808.00
2022-08-26T13:30:15.368Z,9356.00
2022-08-26T13:31:15.448Z,9804.00
2022-08-26T13:32:15.363Z,9892.00
2022-08-26T13:33:15.323Z,9728.00
2022-08-26T13:34:15.304Z,9812.00
2022-08-26T13:35:15.358Z,10076.00
2022-08-26T13:36:15.320Z,10400.00
2022-08-26T13:37:15.291Z,10788.00
2022-08-26T13:38:32.951Z,11512.00
2022-08-26T13:39:15.266Z,12324.00
2022-08-26T13:40:15.425Z,13376.00
2022-08-26T13:41:15.252Z,14208.00
2022-08-26T13:42:15.231Z,14536.00
2022-08-26T13:43:15.216Z,14348.00
2022-08-26T13:44:15.204Z,14260.00
2022-08-26T13:45:15.219Z,14060.00
2022-08-26T13:46:15.243Z,13460.00
2022-08-26T13:47:15.181Z,13104.00
2022-08-26T13:48:15.189Z,12724.00
2022-08-26T13:49:15.160Z,12636.00
2022-08-26T13:50:15.209Z,12544.00
2022-08-26T13:51:15.145Z,12036.00
2022-08-26T13:52:15.130Z,11500.00
2022-08-26T13:53:15.146Z,11580.00
2022-08-26T13:54:15.087Z,11972.00
2022-08-26T13:55:15.137Z,11864.00
2022-08-26T13:56:15.111Z,10900.00
2022-08-26T13:57:15.074Z,10168.00
2022-08-26T13:58:15.055Z,10040.00
2022-08-26T13:59:15.045Z,10084.00
2022-08-26T14:00:15.050Z,10316.00
2022-08-26T14:02:14.265Z,11652.00
2022-08-26T14:03:15.268Z,12336.00
2022-08-26T14:04:15.244Z,12932.00
2022-08-26T14:05:15.223Z,13300.00
2022-08-26T14:06:15.215Z,13084.00
2022-08-26T14:07:15.181Z,12496.00
2022-08-26T14:08:15.191Z,11780.00
2022-08-26T14:09:15.216Z,10640.00
2022-08-26T14:10:15.161Z,9388.00
2022-08-26T14:11:15.220Z,8636.00
2022-08-26T14:12:15.156Z,8452.00
2022-08-26T14:13:15.142Z,8368.00
2022-08-26T14:14:15.130Z,8836.00
2022-08-26T14:15:15.119Z,9012.00
2022-08-26T14:16:15.124Z,8976.00
2022-08-26T14:17:15.107Z,8896.00
2022-08-26T14:18:15.082Z,9084.00
2022-08-26T14:19:15.075Z,9744.00
2022-08-26T14:20:15.085Z,10700.00
2022-08-26T14:21:15.100Z,12024.00
2022-08-26T14:22:15.046Z,13532.00
2022-08-26T14:23:15.119Z,14692.00
2022-08-26T14:24:15.002Z,13776.00
2022-08-26T14:25:15.006Z,13764.00
2022-08-26T14:26:28.524Z,14764.00
2022-08-26T14:27:14.997Z,15376.00
2022-08-26T14:28:15.053Z,15432.00
2022-08-26T14:29:16.693Z,13436.00
2022-08-26T14:30:14.943Z,13476.00
2022-08-26T14:31:14.966Z,13196.00
2022-08-26T14:32:14.948Z,13204.00
2022-08-26T14:33:14.931Z,11540.00
2022-08-26T14:34:14.906Z,9476.00
2022-08-26T14:35:14.907Z,8208.00
2022-08-26T14:36:14.916Z,7540.00
2022-08-26T14:37:15.509Z,7328.00
2022-08-26T14:38:14.865Z,7136.00
2022-08-26T14:39:14.849Z,7172.00
2022-08-26T14:40:14.938Z,7296.00
2022-08-26T14:41:14.849Z,7496.00
2022-08-26T14:42:14.861Z,8176.00
2022-08-26T14:43:14.802Z,8644.00
2022-08-26T14:44:14.815Z,8716.00
2022-08-26T14:45:14.807Z,9780.00
2022-08-26T14:46:14.838Z,10988.00
2022-08-26T14:47:14.885Z,10952.00
2022-08-26T14:48:14.782Z,10892.00
2022-08-26T14:49:14.745Z,9744.00
2022-08-26T14:50:14.730Z,9028.00
2022-08-26T14:51:14.723Z,8376.00
2022-08-26T14:52:14.769Z,7656.00
2022-08-26T14:53:14.711Z,7276.00
2022-08-26T14:54:14.745Z,7128.00
2022-08-26T14:55:14.696Z,6860.00
2022-08-26T14:56:16.707Z,6312.00
2022-08-26T14:57:14.636Z,5912.00
2022-08-26T14:58:14.647Z,5948.00
2022-08-26T14:59:14.623Z,6248.00
2022-08-26T15:00:14.629Z,6604.00
2022-08-26T15:01:14.667Z,7084.00
2022-08-26T15:02:32.535Z,7436.00
2022-08-26T15:04:14.571Z,7872.00
2022-08-26T15:05:14.565Z,8020.00
2022-08-26T15:06:14.587Z,8032.00
2022-08-26T15:07:14.550Z,7868.00
2022-08-26T15:08:14.536Z,7764.00
2022-08-26T15:09:14.525Z,7200.00
2022-08-26T15:10:14.501Z,6820.00
2022-08-26T15:11:14.537Z,6524.00
2022-08-26T15:12:14.524Z,6236.00
2022-08-26T15:13:14.469Z,6196.00
2022-08-26T15:14:19.221Z,6416.00
2022-08-26T15:15:14.478Z,6656.00
2022-08-26T15:16:14.529Z,6828.00
2022-08-26T15:17:14.429Z,6824.00
2022-08-26T15:18:14.434Z,6532.00
2022-08-26T15:19:14.410Z,6412.00
2022-08-26T15:20:14.424Z,6436.00
2022-08-26T15:21:14.400Z,6440.00
2022-08-26T15:22:14.391Z,6580.00
2022-08-26T15:23:14.461Z,6900.00
2022-08-26T15:24:14.343Z,6768.00
2022-08-26T15:25:14.324Z,6336.00
2022-08-26T15:26:14.328Z,5964.00
2022-08-26T15:27:14.325Z,5928.00
2022-08-26T15:28:14.334Z,6080.00
2022-08-26T15:29:14.307Z,5944.00
2022-08-26T15:30:14.280Z,5924.00
2022-08-26T15:31:14.315Z,5984.00
2022-08-26T15:32:14.269Z,6392.00
2022-08-26T15:33:14.863Z,7296.00
2022-08-26T15:34:16.776Z,8272.00
2022-08-26T15:35:14.212Z,8964.00
2022-08-26T15:36:14.206Z,9420.00
2022-08-26T15:37:14.203Z,10028.00
2022-08-26T15:38:14.181Z,11036.00
2022-08-26T15:39:14.202Z,11760.00
2022-08-26T15:40:14.237Z,11636.00
2022-08-26T15:41:14.163Z,11012.00
2022-08-26T15:42:14.147Z,10040.00
2022-08-26T15:43:27.802Z,9060.00
2022-08-26T15:44:14.150Z,8344.00
2022-08-26T15:45:14.128Z,7808.00
2022-08-26T15:46:14.162Z,7388.00
2022-08-26T15:47:14.080Z,7492.00
2022-08-26T15:48:14.312Z,8020.00
2022-08-26T15:49:18.420Z,8308.00
2022-08-26T15:50:14.067Z,8040.00
2022-08-26T15:51:14.038Z,7504.00
2022-08-26T15:52:20.564Z,7060.00
2022-08-26T15:53:14.036Z,6792.00
2022-08-26T15:54:14.075Z,6552.00
2022-08-26T15:55:13.992Z,6288.00
2022-08-26T15:56:14.015Z,6064.00
2022-08-26T15:57:16.418Z,6052.00
2022-08-26T15:58:13.974Z,6340.00
2022-08-26T15:59:14.026Z,6884.00
2022-08-26T16:00:13.955Z,7412.00
2022-08-26T16:01:14.009Z,7776.00
2022-08-26T16:02:14.010Z,7816.00
2022-08-26T16:03:13.913Z,7668.00
2022-08-26T16:04:13.916Z,7632.00
2022-08-26T16:05:13.885Z,7800.00
2022-08-26T16:06:13.950Z,7916.00
2022-08-26T16:07:13.874Z,7828.00
2022-08-26T16:08:13.854Z,7560.00
2022-08-26T16:09:13.841Z,7268.00
2022-08-26T16:10:13.841Z,6816.00